createdAt,value
2023-04-24T00:02:04.825Z,8.03
2023-04-24T00:04:52.459Z,8.05
2023-04-24T00:07:39.560Z,8.00
2023-04-24T00:10:26.714Z,8.13
2023-04-24T00:13:13.868Z,8.03
2023-04-24T00:16:00.972Z,7.86
2023-04-24T00:18:48.963Z,7.80
2023-04-24T00:21:36.232Z,7.87
2023-04-24T00:24:23.324Z,7.77
2023-04-24T00:27:10.732Z,7.91
2023-04-24T00:29:57.784Z,7.89
2023-04-24T00:32:44.930Z,7.71
2023-04-24T00:35:32.123Z,7.71
2023-04-24T00:38:19.583Z,7.84
2023-04-24T00:41:07.098Z,8.00
2023-04-24T00:43:54.258Z,7.93
2023-04-24T00:46:42.350Z,7.96
2023-04-24T00:49:29.533Z,8.04
2023-04-24T00:52:18.767Z,8.17
2023-04-24T00:55:06.782Z,8.19
2023-04-24T00:57:54.052Z,8.29
2023-04-24T01:00:41.144Z,8.54
2023-04-24T01:03:32.170Z,8.69
2023-04-24T01:06:20.229Z,8.88
2023-04-24T01:09:10.123Z,8.83
2023-04-24T01:11:57.751Z,8.84
2023-04-24T01:14:45.217Z,9.03
2023-04-24T01:17:32.527Z,9.09
2023-04-24T01:20:20.321Z,9.19
2023-04-24T01:23:08.556Z,9.32
2023-04-24T01:25:55.925Z,9.40
2023-04-24T01:28:43.060Z,9.37
2023-04-24T01:31:30.888Z,9.44
2023-04-24T01:34:18.292Z,9.55
2023-04-24T01:37:06.439Z,9.50
2023-04-24T01:39:53.636Z,9.59
2023-04-24T01:42:42.393Z,9.35
2023-04-24T01:45:29.522Z,9.19
2023-04-24T01:48:16.738Z,9.08
2023-04-24T01:51:03.970Z,8.92
2023-04-24T01:53:51.430Z,8.90
2023-04-24T01:56:46.279Z,9.07
2023-04-24T01:59:34.561Z,8.88
2023-04-24T02:02:22.532Z,9.12
2023-04-24T02:05:11.020Z,9.01
2023-04-24T02:07:58.278Z,8.91
2023-04-24T02:10:45.412Z,8.98
2023-04-24T02:13:32.769Z,8.93
2023-04-24T02:16:20.181Z,8.99
2023-04-24T02:19:07.474Z,8.96
2023-04-24T02:21:54.625Z,9.14
2023-04-24T02:24:41.878Z,9.13
2023-04-24T02:27:28.913Z,9.12
2023-04-24T02:30:16.097Z,9.25
2023-04-24T02:33:03.313Z,9.31
2023-04-24T02:35:50.415Z,9.17
2023-04-24T02:38:37.471Z,9.22
2023-04-24T02:41:24.655Z,9.21
2023-04-24T02:44:11.872Z,9.25
2023-04-24T02:46:58.964Z,9.35
2023-04-24T02:49:46.056Z,9.48
2023-04-24T02:52:33.236Z,9.33
2023-04-24T02:55:20.500Z,9.46
2023-04-24T02:58:07.598Z,9.40
2023-04-24T03:00:56.928Z,9.53
2023-04-24T03:03:44.246Z,9.55
2023-04-24T03:06:32.541Z,9.61
2023-04-24T03:09:20.185Z,9.58
2023-04-24T03:12:07.484Z,9.65
2023-04-24T03:14:54.573Z,9.64
2023-04-24T03:17:41.706Z,9.53
2023-04-24T03:20:28.920Z,9.69
2023-04-24T03:23:16.368Z,9.72
2023-04-24T03:26:03.634Z,9.76
2023-04-24T03:28:50.695Z,9.80
2023-04-24T03:31:37.904Z,9.72
2023-04-24T03:34:24.964Z,9.84
2023-04-24T03:37:12.033Z,9.73
2023-04-24T03:39:59.150Z,9.72
2023-04-24T03:42:46.267Z,9.73
2023-04-24T03:45:33.322Z,9.68
2023-04-24T03:48:20.569Z,9.71
2023-04-24T03:51:07.631Z,9.71
2023-04-24T03:53:54.982Z,9.84
2023-04-24T03:56:42.005Z,9.86
2023-04-24T03:59:29.197Z,9.92
2023-04-24T04:02:16.359Z,9.90
2023-04-24T04:05:03.761Z,9.95
2023-04-24T04:07:50.906Z,9.93
2023-04-24T04:10:38.081Z,9.96
2023-04-24T04:13:25.113Z,10.05
2023-04-24T04:16:12.182Z,10.06
2023-04-24T04:18:59.757Z,10.03
2023-04-24T04:21:46.899Z,9.98
2023-04-24T04:24:33.975Z,9.94
2023-04-24T04:27:22.580Z,10.06
2023-04-24T04:30:10.924Z,10.06
2023-04-24T04:32:58.130Z,10.01
2023-04-24T04:35:45.360Z,10.27
2023-04-24T04:38:32.482Z,10.45
2023-04-24T04:41:19.636Z,10.37
2023-04-24T04:44:07.759Z,10.41
2023-04-24T04:46:57.364Z,10.42
2023-04-24T04:49:45.154Z,10.49
2023-04-24T04:52:32.628Z,10.50
2023-04-24T04:55:21.023Z,10.59
2023-04-24T04:58:08.241Z,10.51
2023-04-24T05:00:55.358Z,10.61
2023-04-24T05:03:42.611Z,10.64
2023-04-24T05:06:29.882Z,10.63
2023-04-24T05:09:17.145Z,10.54
2023-04-24T05:12:04.800Z,10.51
2023-04-24T05:14:51.816Z,10.67
2023-04-24T05:17:40.838Z,10.60
2023-04-24T05:20:27.955Z,10.68
2023-04-24T05:23:15.042Z,10.66
2023-04-24T05:26:02.102Z,10.79
2023-04-24T05:28:49.117Z,10.79
2023-04-24T05:31:36.572Z,10.86
2023-04-24T05:34:23.656Z,10.84
2023-04-24T05:37:11.133Z,10.94
2023-04-24T05:39:58.197Z,10.94
2023-04-24T05:42:45.259Z,10.98
2023-04-24T05:45:32.841Z,11.03
2023-04-24T05:48:20.098Z,10.96
2023-04-24T05:51:07.188Z,11.08
2023-04-24T05:53:54.276Z,11.05
2023-04-24T05:56:43.140Z,11.11
2023-04-24T05:59:30.543Z,11.06
2023-04-24T06:02:17.935Z,11.08
2023-04-24T06:05:05.901Z,11.11
2023-04-24T06:07:53.407Z,11.02
2023-04-24T06:10:40.575Z,11.13
2023-04-24T06:13:27.698Z,11.08
2023-04-24T06:16:14.852Z,11.16
2023-04-24T06:19:01.968Z,11.01
2023-04-24T06:21:49.048Z,11.16
2023-04-24T06:24:36.140Z,11.20
2023-04-24T06:27:23.295Z,11.30
2023-04-24T06:30:11.357Z,11.15
2023-04-24T06:33:02.993Z,11.16
2023-04-24T06:35:56.616Z,11.40
2023-04-24T06:38:43.699Z,11.19
2023-04-24T06:41:30.973Z,11.20
2023-04-24T06:44:18.105Z,11.28
2023-04-24T06:47:05.309Z,11.18
2023-04-24T06:49:53.645Z,11.11
2023-04-24T06:52:42.020Z,11.21
2023-04-24T06:55:29.130Z,11.16
2023-04-24T06:58:17.134Z,11.13
2023-04-24T07:01:04.312Z,11.14
2023-04-24T07:03:51.631Z,11.25
2023-04-24T07:06:39.004Z,11.31
2023-04-24T07:09:27.126Z,11.32
2023-04-24T07:12:14.738Z,11.08
2023-04-24T07:15:02.364Z,11.15
2023-04-24T07:17:49.483Z,11.17
2023-04-24T07:20:36.619Z,10.98
2023-04-24T07:23:23.661Z,11.00
2023-04-24T07:26:10.908Z,11.00
2023-04-24T07:28:58.418Z,10.92
2023-04-24T07:31:45.587Z,10.98
2023-04-24T07:34:32.834Z,10.86
2023-04-24T07:37:20.441Z,10.87
2023-04-24T07:40:08.217Z,10.94
2023-04-24T07:42:55.484Z,10.96
2023-04-24T07:45:42.612Z,11.00
2023-04-24T07:48:29.633Z,10.96
2023-04-24T07:51:16.706Z,11.04
2023-04-24T07:54:04.009Z,10.95
2023-04-24T07:56:51.381Z,10.90
2023-04-24T07:59:38.544Z,10.81
2023-04-24T08:02:27.628Z,10.90
2023-04-24T08:05:15.214Z,10.97
2023-04-24T08:08:02.503Z,10.95
2023-04-24T08:10:50.282Z,11.00
2023-04-24T08:13:37.363Z,10.94
2023-04-24T08:16:27.678Z,10.96
2023-04-24T08:19:14.778Z,11.12
2023-04-24T08:22:01.893Z,11.14
2023-04-24T08:24:48.973Z,11.05
2023-04-24T08:27:37.734Z,11.16
2023-04-24T08:30:24.835Z,11.21
2023-04-24T08:33:11.917Z,11.18
2023-04-24T08:35:58.914Z,11.30
2023-04-24T08:38:47.605Z,11.27
2023-04-24T08:41:35.810Z,11.30
2023-04-24T08:44:23.245Z,11.25
2023-04-24T08:47:10.880Z,11.16
2023-04-24T08:49:59.855Z,11.10
2023-04-24T08:52:48.267Z,11.20
2023-04-24T08:55:35.843Z,11.20
2023-04-24T08:58:23.857Z,11.23
2023-04-24T09:01:11.595Z,11.18
2023-04-24T09:03:59.442Z,11.22
2023-04-24T09:06:47.212Z,11.30
2023-04-24T09:09:35.899Z,11.14
2023-04-24T09:12:23.553Z,11.44
2023-04-24T09:15:12.100Z,11.62
2023-04-24T09:17:59.348Z,11.52
2023-04-24T09:21:09.039Z,11.57
2023-04-24T09:24:04.879Z,11.61
2023-04-24T09:27:02.586Z,11.57
2023-04-24T09:29:57.445Z,11.38
2023-04-24T09:32:44.558Z,11.42
2023-04-24T09:35:33.371Z,11.40
2023-04-24T09:38:36.449Z,11.53
2023-04-24T09:41:23.570Z,11.60
2023-04-24T09:44:17.248Z,11.63
2023-04-24T09:47:09.956Z,11.69
2023-04-24T09:49:59.476Z,11.71
2023-04-24T09:53:11.927Z,11.87
2023-04-24T09:56:14.040Z,11.95
2023-04-24T09:59:08.525Z,12.03
2023-04-24T10:01:56.704Z,12.09
2023-04-24T10:04:56.852Z,12.16
2023-04-24T10:07:44.636Z,12.09
2023-04-24T10:10:46.043Z,12.25
2023-04-24T10:13:34.014Z,12.19
2023-04-24T10:16:23.527Z,12.08
2023-04-24T10:19:12.042Z,11.80
2023-04-24T10:21:59.608Z,12.04
2023-04-24T10:24:48.569Z,12.26
2023-04-24T10:27:36.035Z,12.13
2023-04-24T10:30:23.083Z,12.50
2023-04-24T10:33:10.337Z,12.46
2023-04-24T10:35:59.580Z,12.44
2023-04-24T10:38:48.077Z,12.51
2023-04-24T10:41:38.739Z,12.45
2023-04-24T10:44:26.225Z,12.52
2023-04-24T10:47:16.492Z,12.60
2023-04-24T10:50:08.847Z,12.50
2023-04-24T10:53:07.499Z,12.51
2023-04-24T10:56:10.917Z,12.73
2023-04-24T10:58:58.027Z,13.16
2023-04-24T11:01:55.487Z,12.76
2023-04-24T11:04:44.382Z,12.82
2023-04-24T11:07:51.553Z,12.77
2023-04-24T11:10:45.712Z,12.41
2023-04-24T11:13:57.781Z,12.81
2023-04-24T11:16:46.898Z,12.84
2023-04-24T11:19:35.127Z,12.97
2023-04-24T11:22:24.901Z,13.19
2023-04-24T11:25:13.089Z,13.14
2023-04-24T11:28:07.338Z,13.05
2023-04-24T11:30:55.295Z,12.85
2023-04-24T11:33:42.374Z,12.96
2023-04-24T11:36:32.637Z,13.09
2023-04-24T11:39:19.798Z,13.02
2023-04-24T11:42:08.995Z,12.93
2023-04-24T11:44:56.957Z,13.06
2023-04-24T11:47:45.200Z,13.41
2023-04-24T11:50:32.429Z,13.52
2023-04-24T11:53:23.072Z,13.08
2023-04-24T11:56:11.224Z,13.57
2023-04-24T11:58:58.436Z,13.48
2023-04-24T12:01:46.848Z,13.09
2023-04-24T12:04:42.618Z,12.96
2023-04-24T12:07:29.923Z,12.83
2023-04-24T12:10:22.558Z,12.99
2023-04-24T12:13:12.337Z,13.12
2023-04-24T12:15:59.680Z,13.10
2023-04-24T12:18:47.195Z,13.25
2023-04-24T12:21:34.294Z,13.22
2023-04-24T12:24:21.463Z,13.29
2023-04-24T12:27:10.200Z,13.33
2023-04-24T12:29:58.515Z,13.57
2023-04-24T12:32:50.593Z,13.84
2023-04-24T12:35:37.758Z,14.00
2023-04-24T12:38:27.312Z,14.10
2023-04-24T12:41:15.320Z,14.49
2023-04-24T12:44:02.525Z,14.46
2023-04-24T12:46:49.642Z,14.71
2023-04-24T12:49:37.070Z,14.76
2023-04-24T12:52:25.537Z,15.15
2023-04-24T12:55:13.349Z,15.41
2023-04-24T12:58:00.690Z,15.53
2023-04-24T13:00:48.761Z,15.94
2023-04-24T13:03:36.551Z,15.81
2023-04-24T13:06:23.749Z,15.91
2023-04-24T13:09:10.977Z,16.25
2023-04-24T13:11:58.258Z,15.22
2023-04-24T13:14:47.080Z,14.88
2023-04-24T13:17:34.583Z,14.66
2023-04-24T13:20:21.854Z,14.73
2023-04-24T13:23:09.105Z,14.83
2023-04-24T13:25:58.689Z,14.65
2023-04-24T13:28:45.907Z,14.55
2023-04-24T13:31:33.248Z,14.47
2023-04-24T13:34:20.444Z,14.20
2023-04-24T13:37:09.126Z,14.02
2023-04-24T13:39:56.473Z,14.25
2023-04-24T13:42:44.123Z,13.96
2023-04-24T13:45:31.403Z,13.98
2023-04-24T13:48:19.047Z,13.71
2023-04-24T13:51:06.287Z,13.76
2023-04-24T13:53:53.304Z,13.50
2023-04-24T13:56:41.743Z,13.28
2023-04-24T13:59:28.822Z,13.06
2023-04-24T14:02:16.357Z,12.77
2023-04-24T14:05:04.613Z,12.11
2023-04-24T14:07:52.170Z,11.87
2023-04-24T14:10:39.314Z,11.89
2023-04-24T14:13:26.502Z,11.84
2023-04-24T14:16:14.278Z,11.47
2023-04-24T14:19:01.641Z,11.53
2023-04-24T14:21:48.684Z,11.11
2023-04-24T14:24:35.913Z,11.05
2023-04-24T14:27:22.946Z,11.09
2023-04-24T14:30:10.378Z,11.26
2023-04-24T14:32:57.538Z,11.14
2023-04-24T14:35:44.847Z,11.04
2023-04-24T14:38:32.596Z,10.95
2023-04-24T14:41:19.693Z,11.05
2023-04-24T14:44:06.842Z,11.06
2023-04-24T14:46:54.532Z,10.92
2023-04-24T14:49:41.696Z,10.91
2023-04-24T14:52:28.774Z,10.90
2023-04-24T14:55:15.848Z,10.92
2023-04-24T14:58:03.866Z,10.92
2023-04-24T15:00:53.039Z,10.89
2023-04-24T15:03:40.379Z,10.78
2023-04-24T15:06:27.631Z,10.81
2023-04-24T15:09:14.742Z,10.87
2023-04-24T15:12:03.015Z,10.90
2023-04-24T15:14:50.082Z,10.88
2023-04-24T15:17:37.397Z,11.05
2023-04-24T15:20:24.532Z,11.15
2023-04-24T15:23:11.656Z,11.31
2023-04-24T15:25:58.980Z,11.32
2023-04-24T15:28:47.785Z,11.47
2023-04-24T15:31:34.973Z,11.56
2023-04-24T15:34:22.170Z,11.71
2023-04-24T15:37:09.411Z,11.77
2023-04-24T15:39:56.975Z,11.68
2023-04-24T15:42:44.947Z,11.89
2023-04-24T15:45:33.345Z,11.87
2023-04-24T15:48:20.780Z,11.94
2023-04-24T15:51:08.033Z,12.07
2023-04-24T15:53:55.404Z,12.00
2023-04-24T15:56:42.560Z,12.10
2023-04-24T15:59:31.145Z,12.03
2023-04-24T16:02:20.878Z,12.17
2023-04-24T16:05:08.966Z,12.23
2023-04-24T16:07:56.153Z,12.31
2023-04-24T16:10:43.639Z,12.25
2023-04-24T16:13:32.118Z,12.26
2023-04-24T16:16:20.052Z,12.15
2023-04-24T16:19:08.539Z,12.12
2023-04-24T16:21:57.276Z,11.98
2023-04-24T16:24:44.801Z,12.16
2023-04-24T16:27:32.253Z,11.74
2023-04-24T16:30:20.083Z,11.51
2023-04-24T16:33:09.282Z,11.17
2023-04-24T16:35:56.814Z,10.85
2023-04-24T16:38:44.081Z,10.87
2023-04-24T16:41:31.991Z,10.74
2023-04-24T16:44:19.531Z,10.62
2023-04-24T16:47:08.040Z,10.52
2023-04-24T16:49:55.517Z,10.31
2023-04-24T16:52:43.957Z,10.21
2023-04-24T16:55:31.585Z,10.21
2023-04-24T16:58:18.823Z,9.98
2023-04-24T17:01:06.077Z,9.99
2023-04-24T17:03:53.565Z,9.93
2023-04-24T17:06:41.374Z,9.93
2023-04-24T17:09:28.863Z,9.80
2023-04-24T17:12:16.085Z,9.77
2023-04-24T17:15:03.737Z,9.80
2023-04-24T17:17:52.277Z,9.84
2023-04-24T17:20:40.345Z,9.93
2023-04-24T17:23:28.664Z,9.95
2023-04-24T17:26:16.936Z,9.82
2023-04-24T17:29:04.419Z,9.85
2023-04-24T17:31:52.662Z,9.99
2023-04-24T17:34:40.745Z,9.91
2023-04-24T17:37:28.734Z,9.85
2023-04-24T17:40:16.756Z,9.91
2023-04-24T17:43:04.478Z,9.86
2023-04-24T17:45:54.088Z,9.92
2023-04-24T17:48:41.827Z,9.90
2023-04-24T17:51:29.803Z,9.76
2023-04-24T17:54:18.280Z,9.84
2023-04-24T17:57:06.324Z,9.82
2023-04-24T17:59:53.889Z,9.71
2023-04-24T18:02:41.585Z,9.61
2023-04-24T18:05:33.324Z,9.63
2023-04-24T18:08:20.657Z,9.55
2023-04-24T18:11:07.971Z,9.68
2023-04-24T18:13:55.995Z,9.61
2023-04-24T18:16:43.950Z,9.62
2023-04-24T18:19:31.452Z,9.65
2023-04-24T18:22:19.125Z,9.68
2023-04-24T18:25:06.952Z,9.53
2023-04-24T18:27:55.181Z,9.64
2023-04-24T18:30:43.193Z,9.50
2023-04-24T18:33:30.791Z,9.49
2023-04-24T18:36:19.325Z,9.59
2023-04-24T18:39:07.226Z,9.62
2023-04-24T18:41:57.279Z,9.47
2023-04-24T18:44:44.967Z,9.52
2023-04-24T18:47:33.822Z,9.54
2023-04-24T18:50:22.551Z,9.50
2023-04-24T18:53:14.613Z,9.59
2023-04-24T18:56:02.984Z,9.55
2023-04-24T18:58:52.520Z,9.42
2023-04-24T19:01:40.531Z,9.51
2023-04-24T19:04:30.391Z,9.41
2023-04-24T19:07:19.938Z,9.41
2023-04-24T19:10:08.748Z,9.36
2023-04-24T19:12:57.551Z,9.33
2023-04-24T19:15:45.892Z,9.24
2023-04-24T19:18:34.921Z,9.12
2023-04-24T19:21:23.681Z,9.23
2023-04-24T19:24:11.826Z,9.04
2023-04-24T19:27:00.161Z,9.04
2023-04-24T19:29:48.256Z,9.05
2023-04-24T19:32:36.330Z,8.84
2023-04-24T19:35:23.684Z,9.00
2023-04-24T19:38:12.036Z,9.01
2023-04-24T19:41:00.300Z,8.77
2023-04-24T19:43:50.348Z,8.88
2023-04-24T19:46:38.694Z,8.90
2023-04-24T19:49:29.120Z,8.80
2023-04-24T19:52:16.825Z,8.64
2023-04-24T19:55:07.345Z,8.57
2023-04-24T19:57:54.569Z,8.68
2023-04-24T20:00:43.151Z,8.46
2023-04-24T20:03:34.068Z,8.33
2023-04-24T20:06:22.274Z,8.38
2023-04-24T20:09:10.145Z,8.37
2023-04-24T20:11:57.768Z,8.33
2023-04-24T20:14:45.578Z,8.32
2023-04-24T20:17:32.854Z,8.25
2023-04-24T20:20:20.156Z,8.36
2023-04-24T20:23:08.298Z,8.28
2023-04-24T20:25:58.662Z,8.14
2023-04-24T20:28:45.914Z,8.27
2023-04-24T20:31:33.666Z,8.24
2023-04-24T20:34:21.701Z,8.26
2023-04-24T20:37:08.868Z,8.26
2023-04-24T20:39:56.176Z,8.36
2023-04-24T20:42:46.496Z,8.37
2023-04-24T20:45:33.676Z,8.30
2023-04-24T20:48:20.896Z,8.16
2023-04-24T20:51:08.269Z,8.23
2023-04-24T20:53:55.443Z,8.24
2023-04-24T20:56:42.780Z,8.04
2023-04-24T20:59:30.011Z,8.02
2023-04-24T21:02:17.289Z,8.01
2023-04-24T21:05:04.734Z,7.93
2023-04-24T21:07:56.035Z,7.83
2023-04-24T21:10:43.179Z,7.96
2023-04-24T21:13:30.461Z,8.18
2023-04-24T21:16:17.706Z,8.02
2023-04-24T21:19:05.486Z,7.90
2023-04-24T21:21:52.628Z,7.83
2023-04-24T21:24:39.761Z,7.86
2023-04-24T21:27:26.996Z,7.80
2023-04-24T21:30:14.239Z,7.89
2023-04-24T21:33:01.515Z,7.96
2023-04-24T21:35:48.753Z,7.93
2023-04-24T21:38:35.912Z,7.90
2023-04-24T21:41:24.827Z,7.87
2023-04-24T21:44:11.965Z,7.89
2023-04-24T21:46:59.431Z,7.80
2023-04-24T21:49:46.510Z,7.99
2023-04-24T21:52:33.641Z,7.83
2023-04-24T21:55:21.620Z,7.96
2023-04-24T21:58:08.870Z,7.98
2023-04-24T22:00:56.021Z,7.87
2023-04-24T22:03:43.338Z,7.90
2023-04-24T22:06:32.256Z,7.99
2023-04-24T22:09:19.907Z,7.94
2023-04-24T22:12:07.166Z,7.95
2023-04-24T22:14:54.290Z,7.99
2023-04-24T22:17:41.496Z,8.00
2023-04-24T22:20:30.348Z,8.04
2023-04-24T22:23:17.525Z,8.00
2023-04-24T22:26:04.697Z,7.95
2023-04-24T22:28:51.910Z,8.04
2023-04-24T22:31:39.211Z,7.96
2023-04-24T22:34:26.366Z,7.81
2023-04-24T22:37:13.623Z,7.77
2023-04-24T22:40:01.503Z,7.84
2023-04-24T22:42:48.735Z,7.83
2023-04-24T22:45:36.183Z,7.91
2023-04-24T22:48:23.386Z,7.72
2023-04-24T22:51:10.903Z,7.87
2023-04-24T22:53:58.069Z,7.92
2023-04-24T22:56:46.651Z,7.97
2023-04-24T22:59:33.841Z,8.05
2023-04-24T23:03:36.039Z,8.00
2023-04-24T23:06:23.394Z,7.89
2023-04-24T23:09:10.455Z,7.90
2023-04-24T23:11:58.102Z,7.82
2023-04-24T23:14:45.142Z,8.00
2023-04-24T23:17:32.242Z,7.97
2023-04-24T23:20:21.787Z,7.94
2023-04-24T23:23:08.918Z,7.94
2023-04-24T23:25:55.969Z,7.99
2023-04-24T23:28:43.020Z,7.92
2023-04-24T23:31:30.109Z,7.92
2023-04-24T23:34:18.904Z,7.90
2023-04-24T23:37:06.526Z,7.90
2023-04-24T23:39:53.654Z,7.85
2023-04-24T23:42:40.758Z,7.80
2023-04-24T23:45:27.894Z,7.77
2023-04-24T23:48:14.945Z,7.96
2023-04-24T23:51:02.084Z,7.91
2023-04-24T23:53:49.705Z,7.81
2023-04-24T23:56:37.334Z,7.82
2023-04-24T23:59:24.394Z,7.91
